Time;durP1;ratioP1;P1;durP2;ratioP2;P2;SDS_P1;SDS_P2;PMS_P1;PMS_P2;Temp;Humidity;BMP_temperature;BMP_pressure;BME280_temperature;BME280_humidity;BME280_pressure;Samples;Min_cycle;Max_cycle;Signal;HPM_P1;HPM_P2
2023/02/12 00:02:18;;;;;;;;;;;;;;;5.08;96.68;100760.84;5063960;28;20198;-81
2023/02/12 00:04:43;;;;;;;;;;;;;;;5.13;96.19;100761.19;5047796;28;20332;-80
2023/02/12 00:07:09;;;;;;;;;;;;;;;5.12;96.41;100762.16;5062837;28;20336;-80
2023/02/12 00:09:35;;;;;;;;;;;;;;;5.04;96.02;100768.28;5053852;28;19912;-81
2023/02/12 00:12:00;;;;;;;;;;;;;;;5.03;95.93;100768.44;5054057;28;19916;-80
2023/02/12 00:14:26;;;;;;;;;;;;;;;5.05;96.00;100771.75;5055460;28;19916;-81
2023/02/12 00:16:51;;;;;;;;;;;;;;;5.24;96.28;100774.06;5048500;28;19951;-81
2023/02/12 00:19:16;;;;;;;;;;;;;;;5.14;96.07;100774.25;5036502;28;19925;-81
2023/02/12 00:21:41;;;;;;;;;;;;;;;5.23;95.13;100767.94;5031869;28;19917;-81
2023/02/12 00:24:07;;;;;;;;;;;;;;;5.15;96.26;100773.25;5068687;28;19916;-81
2023/02/12 00:26:32;;;;;;;;;;;;;;;5.13;95.56;100771.75;5053617;28;19916;-80
2023/02/12 00:28:57;;;;;;;;;;;;;;;5.06;96.53;100771.59;5046084;28;19987;-81
2023/02/12 00:31:25;;;;;;;;;;;;;;;5.12;96.02;100772.75;5045453;28;19917;-81
2023/02/12 00:33:50;;;;;;;;;;;;;;;5.13;95.10;100771.75;5055446;28;19919;-80
2023/02/12 00:36:20;;;;;;;;;;;;;;;5.09;96.04;100767.78;5035772;28;20552;-81
2023/02/12 00:38:45;;;;;;;;;;;;;;;5.02;96.41;100772.91;5049885;28;19967;-81
2023/02/12 00:41:11;;;;;;;;;;;;;;;5.07;97.44;100772.41;5056087;28;19944;-81
2023/02/12 00:43:36;;;;;;;;;;;;;;;5.07;96.47;100775.88;5049078;28;20659;-80
2023/02/12 00:46:02;;;;;;;;;;;;;;;5.01;97.92;100783.66;5050745;28;19952;-81
2023/02/12 00:48:27;;;;;;;;;;;;;;;5.00;98.77;100789.97;5034142;28;19921;-81
2023/02/12 00:50:53;;;;;;;;;;;;;;;5.10;97.74;100798.56;5050723;28;19923;-81
2023/02/12 00:53:18;;;;;;;;;;;;;;;5.12;96.07;100796.56;5032837;28;20395;-82
2023/02/12 00:55:44;;;;;;;;;;;;;;;4.98;97.59;100792.75;5066686;28;19921;-81
2023/02/12 00:58:09;;;;;;;;;;;;;;;5.11;96.99;100789.63;5051169;28;19919;-81
2023/02/12 01:00:34;;;;;;;;;;;;;;;5.29;94.33;100790.25;5047778;28;20377;-81
2023/02/12 01:03:00;;;;;;;;;;;;;;;5.25;94.61;100789.78;5037426;28;19924;-81
2023/02/12 01:05:25;;;;;;;;;;;;;;;5.18;95.44;100790.59;5046167;28;20400;-80
2023/02/12 01:07:51;;;;;;;;;;;;;;;5.25;94.29;100794.25;5048700;28;20257;-80
2023/02/12 01:10:16;;;;;;;;;;;;;;;5.29;93.99;100795.56;5048997;28;19912;-80
2023/02/12 01:12:42;;;;;;;;;;;;;;;5.18;94.79;100787.94;5058147;28;19916;-81
2023/02/12 01:15:09;;;;;;;;;;;;;;;5.18;95.22;100795.91;5047507;28;20759;-81
2023/02/12 01:17:34;;;;;;;;;;;;;;;5.04;95.93;100789.47;5053597;28;19913;-82
2023/02/12 01:20:00;;;;;;;;;;;;;;;5.04;97.05;100799.22;5033015;28;19927;-81
2023/02/12 01:22:25;;;;;;;;;;;;;;;5.05;97.23;100798.22;5046562;28;19940;-81
2023/02/12 01:24:50;;;;;;;;;;;;;;;5.09;96.69;100794.22;5052085;28;20012;-81
2023/02/12 01:27:15;;;;;;;;;;;;;;;5.18;95.43;100795.91;5059618;28;20295;-81
2023/02/12 01:29:43;;;;;;;;;;;;;;;5.14;96.45;100794.56;5051350;28;19996;-81
2023/02/12 01:32:09;;;;;;;;;;;;;;;5.21;96.04;100795.56;5048296;28;20436;-81
2023/02/12 01:34:34;;;;;;;;;;;;;;;5.22;95.02;100795.41;5040856;28;20007;-81
2023/02/12 01:36:59;;;;;;;;;;;;;;;5.18;95.10;100798.53;5052161;28;19917;-81
2023/02/12 01:39:24;;;;;;;;;;;;;;;5.31;93.20;100796.22;5048770;28;19924;-82
2023/02/12 01:41:50;;;;;;;;;;;;;;;5.17;95.37;100796.91;5044474;28;19927;-81
2023/02/12 01:44:17;;;;;;;;;;;;;;;5.16;96.36;100792.59;5040951;28;19921;-80
2023/02/12 01:46:43;;;;;;;;;;;;;;;5.26;94.22;100791.41;5058912;28;19917;-81
2023/02/12 01:49:15;;;;;;;;;;;;;;;5.15;95.60;100783.84;5052792;28;19975;-80
2023/02/12 01:51:41;;;;;;;;;;;;;;;5.36;93.47;100790.41;5045966;28;20023;-81
2023/02/12 01:54:07;;;;;;;;;;;;;;;5.28;93.36;100793.91;5046356;28;19999;-81
2023/02/12 01:56:33;;;;;;;;;;;;;;;5.24;94.38;100790.75;5051315;28;20019;-81
2023/02/12 01:58:59;;;;;;;;;;;;;;;5.32;94.08;100792.59;5033510;28;20335;-81
2023/02/12 02:01:26;;;;;;;;;;;;;;;5.26;94.18;100793.25;5048416;28;19916;-81
2023/02/12 02:03:52;;;;;;;;;;;;;;;5.33;93.06;100789.75;5061818;28;19916;-81
2023/02/12 02:06:30;;;;;;;;;;;;;;;5.30;94.40;100797.22;5057070;28;19920;-81
2023/02/12 02:08:55;;;;;;;;;;;;;;;5.17;95.38;100797.75;5049446;28;19921;-81
2023/02/12 02:17:00;;;;;;;;;;;;;;;5.12;97.63;100799.22;5045360;28;19927;-81
2023/02/12 02:19:44;;;;;;;;;;;;;;;5.05;98.01;100801.69;5048133;28;19917;-81
2023/02/12 02:22:15;;;;;;;;;;;;;;;5.38;93.35;100794.56;5066654;28;19912;-80
2023/02/12 02:24:59;;;;;;;;;;;;;;;5.18;95.86;100793.25;5045265;28;20003;-81
2023/02/12 02:27:39;;;;;;;;;;;;;;;5.33;93.28;100791.59;5054682;28;19916;-80
2023/02/12 02:30:05;;;;;;;;;;;;;;;5.07;97.72;100791.75;5055573;28;19935;-80
2023/02/12 02:32:35;;;;;;;;;;;;;;;5.20;94.42;100792.09;5052205;28;19917;-81
2023/02/12 02:35:00;;;;;;;;;;;;;;;5.35;93.10;100794.09;5051137;28;19923;-80
2023/02/12 02:37:30;;;;;;;;;;;;;;;5.19;95.30;100784.31;5058595;28;19913;-80
2023/02/12 02:40:00;;;;;;;;;;;;;;;5.24;94.86;100792.59;5055756;28;19978;-82
2023/02/12 02:42:31;;;;;;;;;;;;;;;5.20;96.59;100799.19;5052844;28;19934;-81
2023/02/12 02:44:59;;;;;;;;;;;;;;;5.17;95.68;100789.78;5054162;28;20384;-81
2023/02/12 02:47:30;;;;;;;;;;;;;;;4.97;98.85;100788.47;5055823;28;20272;-81
2023/02/12 02:49:58;;;;;;;;;;;;;;;5.18;95.23;100787.94;5068628;28;20522;-81
2023/02/12 02:52:49;;;;;;;;;;;;;;;5.18;95.14;100791.44;5051131;28;20017;-82
2023/02/12 02:55:17;;;;;;;;;;;;;;;5.14;96.11;100786.63;5038450;28;20272;-81
2023/02/12 02:57:47;;;;;;;;;;;;;;;5.08;97.35;100785.50;5059276;28;20369;-82
2023/02/12 03:00:13;;;;;;;;;;;;;;;5.15;95.14;100781.19;5055014;28;19920;-81
2023/02/12 03:02:41;;;;;;;;;;;;;;;5.36;93.35;100790.41;5053971;28;19920;-82
2023/02/12 03:05:14;;;;;;;;;;;;;;;5.00;97.64;100784.66;5037634;28;19916;-82
2023/02/12 03:07:46;;;;;;;;;;;;;;;5.25;94.38;100787.13;5054658;28;20067;-81
2023/02/12 03:10:26;;;;;;;;;;;;;;;5.12;97.72;100788.63;5056636;28;20005;-81
2023/02/12 03:13:06;;;;;;;;;;;;;;;5.21;95.69;100792.94;5051521;28;19936;-81
2023/02/12 03:15:45;;;;;;;;;;;;;;;5.08;97.24;100790.78;5050864;28;19913;-81
2023/02/12 03:18:16;;;;;;;;;;;;;;;5.08;99.07;100792.59;5051165;28;19919;-82
2023/02/12 03:20:44;;;;;;;;;;;;;;;5.28;96.00;100800.06;5052820;28;20291;-81
2023/02/12 03:23:23;;;;;;;;;;;;;;;5.40;93.16;100786.44;5045404;28;20280;-81
2023/02/12 03:25:52;;;;;;;;;;;;;;;5.35;93.07;100786.97;5062734;28;19917;-81
2023/02/12 03:28:21;;;;;;;;;;;;;;;5.32;94.28;100792.59;5048293;28;19913;-81
2023/02/12 03:30:58;;;;;;;;;;;;;;;5.32;95.55;100795.25;5054703;28;20440;-81
2023/02/12 03:33:32;;;;;;;;;;;;;;;5.53;92.41;100789.41;5059882;28;19916;-81
2023/02/12 03:36:02;;;;;;;;;;;;;;;5.57;91.75;100794.19;5055503;28;19921;-81
2023/02/12 03:38:36;;;;;;;;;;;;;;;5.40;93.65;100797.03;5051567;28;19916;-82
2023/02/12 03:41:03;;;;;;;;;;;;;;;5.19;97.23;100800.22;5053480;28;19939;-82
2023/02/12 03:43:32;;;;;;;;;;;;;;;5.25;96.93;100795.06;5049180;28;20407;-82
2023/02/12 03:46:16;;;;;;;;;;;;;;;5.52;92.13;100793.06;5047664;28;19998;-82
2023/02/12 03:48:50;;;;;;;;;;;;;;;5.43;92.64;100794.91;5052575;28;19919;-82
2023/02/12 03:51:19;;;;;;;;;;;;;;;5.44;93.30;100793.09;5046776;28;20304;-82
2023/02/12 03:53:46;;;;;;;;;;;;;;;5.31;93.75;100797.06;5052352;28;19916;-81
2023/02/12 03:56:31;;;;;;;;;;;;;;;5.38;93.03;100804.31;5051304;28;20015;-81
2023/02/12 03:58:56;;;;;;;;;;;;;;;5.31;93.56;100799.69;5046177;28;19913;-81
2023/02/12 04:01:22;;;;;;;;;;;;;;;5.34;93.64;100801.19;5055268;28;20391;-82
2023/02/12 04:03:47;;;;;;;;;;;;;;;5.10;96.81;100809.97;5052452;28;20332;-82
2023/02/12 04:06:39;;;;;;;;;;;;;;;5.19;97.16;100808.97;5045138;28;20431;-81
2023/02/12 04:09:06;;;;;;;;;;;;;;;5.35;93.92;100807.31;5049527;28;19916;-82
2023/02/12 04:11:37;;;;;;;;;;;;;;;5.46;90.70;100802.47;5043925;28;20223;-81
2023/02/12 04:14:02;;;;;;;;;;;;;;;5.57;90.25;100803.97;5064845;28;19913;-81
2023/02/12 04:16:31;;;;;;;;;;;;;;;5.10;95.99;100817.06;5050883;28;19916;-81
2023/02/12 04:18:57;;;;;;;;;;;;;;;5.28;94.53;100820.41;5059428;28;19912;-82
2023/02/12 04:21:34;;;;;;;;;;;;;;;5.16;95.92;100811.13;5048579;28;19931;-81
2023/02/12 04:24:12;;;;;;;;;;;;;;;5.22;96.28;100821.06;5053272;28;20257;-81
2023/02/12 04:26:51;;;;;;;;;;;;;;;5.22;95.08;100821.88;5045923;28;19912;-81
2023/02/12 04:29:32;;;;;;;;;;;;;;;5.22;94.10;100826.34;5054159;28;19919;-81
2023/02/12 04:32:03;;;;;;;;;;;;;;;5.17;95.35;100839.25;5050106;28;19912;-81
2023/02/12 04:34:39;;;;;;;;;;;;;;;5.21;96.01;100833.47;5047892;28;19917;-80
2023/02/12 04:37:06;;;;;;;;;;;;;;;5.32;93.17;100835.78;5051175;28;19961;-81
2023/02/12 04:39:34;;;;;;;;;;;;;;;5.37;92.61;100834.47;5050998;28;20376;-81
2023/02/12 04:42:00;;;;;;;;;;;;;;;5.32;93.06;100835.78;5073419;28;19913;-81
2023/02/12 04:44:27;;;;;;;;;;;;;;;5.21;94.61;100838.75;5032612;28;19921;-82
2023/02/12 04:46:52;;;;;;;;;;;;;;;5.07;97.37;100846.50;5050485;28;20254;-81
2023/02/12 04:49:18;;;;;;;;;;;;;;;5.21;95.48;100846.69;5038703;28;19917;-80
2023/02/12 04:51:45;;;;;;;;;;;;;;;5.21;93.86;100832.63;5066259;28;20358;-81
2023/02/12 04:54:10;;;;;;;;;;;;;;;5.39;92.37;100835.13;5034714;28;19917;-81
2023/02/12 04:56:35;;;;;;;;;;;;;;;5.26;94.41;100840.91;5052196;28;19923;-81
2023/02/12 04:59:01;;;;;;;;;;;;;;;5.44;92.17;100838.09;5056695;28;19917;-81
2023/02/12 05:01:26;;;;;;;;;;;;;;;5.40;91.69;100834.09;5049620;28;19929;-81
2023/02/12 05:03:52;;;;;;;;;;;;;;;5.46;92.20;100839.56;5036919;28;19925;-81
2023/02/12 05:06:17;;;;;;;;;;;;;;;5.26;94.15;100847.00;5054265;28;19912;-81
2023/02/12 05:08:43;;;;;;;;;;;;;;;5.38;92.68;100841.38;5054046;28;19946;-81
2023/02/12 05:11:09;;;;;;;;;;;;;;;5.19;94.99;100847.84;5057366;28;20503;-81
2023/02/12 05:13:35;;;;;;;;;;;;;;;5.33;93.24;100839.22;5050683;28;20241;-81
2023/02/12 05:16:04;;;;;;;;;;;;;;;5.44;91.78;100846.03;5050952;28;19920;-81
2023/02/12 05:18:30;;;;;;;;;;;;;;;5.25;94.28;100842.72;5058970;28;19912;-81
2023/02/12 05:20:56;;;;;;;;;;;;;;;5.32;93.62;100837.59;5033882;28;19924;-80
2023/02/12 05:23:21;;;;;;;;;;;;;;;5.35;92.86;100847.88;5048959;28;20319;-81
2023/02/12 05:25:47;;;;;;;;;;;;;;;5.14;95.50;100852.81;5066250;28;19917;-82
2023/02/12 05:28:12;;;;;;;;;;;;;;;5.27;95.90;100845.19;5052539;28;20206;-82
2023/02/12 05:30:37;;;;;;;;;;;;;;;5.31;94.28;100850.00;5057092;28;20058;-81
2023/02/12 05:33:02;;;;;;;;;;;;;;;5.40;92.67;100847.34;5036560;28;19998;-81
2023/02/12 05:35:28;;;;;;;;;;;;;;;5.41;91.52;100841.91;5059114;28;20501;-81
2023/02/12 05:37:53;;;;;;;;;;;;;;;5.50;91.04;100840.91;5056379;28;20023;-81
2023/02/12 05:40:18;;;;;;;;;;;;;;;5.56;90.83;100845.53;5053253;28;20117;-81
2023/02/12 05:42:43;;;;;;;;;;;;;;;5.41;91.92;100847.19;5048367;28;20364;-81
2023/02/12 05:45:09;;;;;;;;;;;;;;;5.43;92.06;100847.84;5048308;28;19960;-81
2023/02/12 05:47:34;;;;;;;;;;;;;;;5.55;91.36;100843.06;5054282;28;20448;-81
2023/02/12 05:49:59;;;;;;;;;;;;;;;5.53;90.76;100845.00;5032906;28;19939;-81
2023/02/12 05:52:24;;;;;;;;;;;;;;;5.66;90.19;100848.81;5056679;28;19935;-81
2023/02/12 05:54:50;;;;;;;;;;;;;;;5.54;91.31;100846.69;5045321;28;19959;-81
2023/02/12 05:57:15;;;;;;;;;;;;;;;5.65;90.27;100857.78;5050265;28;19913;-81
2023/02/12 05:59:40;;;;;;;;;;;;;;;5.52;91.92;100854.81;5050219;28;20344;-81
2023/02/12 06:02:05;;;;;;;;;;;;;;;5.56;91.57;100858.78;5040121;28;19917;-81
2023/02/12 06:04:31;;;;;;;;;;;;;;;5.71;90.34;100865.03;5048802;28;19971;-81
2023/02/12 06:06:56;;;;;;;;;;;;;;;5.59;90.40;100861.06;5053639;28;19940;-81
2023/02/12 06:09:21;;;;;;;;;;;;;;;5.56;90.62;100864.06;5049367;28;19925;-81
2023/02/12 06:11:47;;;;;;;;;;;;;;;5.64;90.47;100858.75;5053994;28;19913;-80
2023/02/12 06:14:17;;;;;;;;;;;;;;;5.59;90.58;100861.06;5056782;28;19913;-81
2023/02/12 06:16:46;;;;;;;;;;;;;;;5.56;90.07;100866.72;5049710;28;19924;-80
2023/02/12 06:19:11;;;;;;;;;;;;;;;5.62;90.18;100865.22;5069136;28;20533;-82
2023/02/12 06:21:37;;;;;;;;;;;;;;;5.60;90.57;100870.69;5055766;28;19916;-81
2023/02/12 06:24:02;;;;;;;;;;;;;;;5.59;90.65;100870.84;5030779;28;19942;-81
2023/02/12 06:26:27;;;;;;;;;;;;;;;5.65;89.80;100876.31;5048161;28;20001;-80
2023/02/12 06:28:53;;;;;;;;;;;;;;;5.51;90.24;100870.84;5047474;28;19928;-80
2023/02/12 06:31:19;;;;;;;;;;;;;;;5.54;90.32;100874.00;5046545;28;19920;-81
2023/02/12 06:33:44;;;;;;;;;;;;;;;5.57;90.59;100876.31;5053495;28;19916;-81
2023/02/12 06:36:10;;;;;;;;;;;;;;;5.59;90.26;100884.91;5041920;28;19962;-81
2023/02/12 06:38:35;;;;;;;;;;;;;;;5.56;91.18;100882.59;5051440;28;19925;-81
2023/02/12 06:41:01;;;;;;;;;;;;;;;5.62;89.76;100876.63;5050648;28;19931;-80
2023/02/12 06:43:26;;;;;;;;;;;;;;;5.52;90.14;100881.28;5049278;28;19916;-80
2023/02/12 06:45:51;;;;;;;;;;;;;;;5.57;90.95;100884.25;5053693;28;20011;-81
2023/02/12 06:48:17;;;;;;;;;;;;;;;5.53;89.99;100890.03;5050403;28;19920;-81
2023/02/12 06:50:42;;;;;;;;;;;;;;;5.59;90.61;100882.25;5046642;28;19925;-81
2023/02/12 06:53:07;;;;;;;;;;;;;;;5.63;90.30;100896.84;5050060;28;19967;-81
2023/02/12 06:55:33;;;;;;;;;;;;;;;5.54;91.06;100904.94;5032615;28;19917;-81
2023/02/12 06:57:58;;;;;;;;;;;;;;;5.69;90.22;100905.94;5053604;28;19999;-81
2023/02/12 07:00:24;;;;;;;;;;;;;;;5.80;89.02;100906.44;5049708;28;20067;-81
2023/02/12 07:02:55;;;;;;;;;;;;;;;5.80;89.48;100906.44;5032302;28;19928;-81
2023/02/12 07:05:21;;;;;;;;;;;;;;;5.76;89.81;100905.13;5048571;28;20375;-81
2023/02/12 07:07:46;;;;;;;;;;;;;;;5.70;89.04;100912.91;5046887;28;19923;-81
2023/02/12 07:10:11;;;;;;;;;;;;;;;5.64;89.80;100911.72;5044378;28;19912;-81
2023/02/12 07:12:36;;;;;;;;;;;;;;;5.74;89.05;100916.88;5051638;28;19923;-82
2023/02/12 07:15:02;;;;;;;;;;;;;;;5.72;90.51;100918.88;5044999;28;19924;-80
2023/02/12 07:17:28;;;;;;;;;;;;;;;5.71;89.04;100915.38;5034372;28;20395;-81
2023/02/12 07:19:54;;;;;;;;;;;;;;;5.73;90.06;100921.34;5051712;28;19916;-81
2023/02/12 07:22:21;;;;;;;;;;;;;;;5.76;90.38;100921.00;5049560;28;19920;-81
2023/02/12 07:24:46;;;;;;;;;;;;;;;5.67;89.86;100932.59;5047515;28;19923;-81
2023/02/12 07:27:11;;;;;;;;;;;;;;;5.64;90.22;100927.63;5053882;28;19921;-81
2023/02/12 07:29:36;;;;;;;;;;;;;;;5.67;90.23;100924.66;5037919;28;19974;-81
2023/02/12 07:32:02;;;;;;;;;;;;;;;5.73;89.58;100936.41;5044934;28;20415;-81
2023/02/12 07:34:27;;;;;;;;;;;;;;;5.66;89.78;100935.41;5048238;28;22835;-80
2023/02/12 07:36:52;;;;;;;;;;;;;;;5.67;90.41;100932.59;5044312;28;19920;-81
2023/02/12 07:39:18;;;;;;;;;;;;;;;5.68;90.15;100933.44;5049770;28;19918;-81
2023/02/12 07:41:44;;;;;;;;;;;;;;;5.77;90.84;100943.00;5063039;28;20735;-82
2023/02/12 07:44:10;;;;;;;;;;;;;;;5.70;91.05;100948.16;5054508;28;19916;-80
2023/02/12 07:46:46;;;;;;;;;;;;;;;5.66;90.79;100946.84;5065910;28;19970;-80
2023/02/12 07:49:13;;;;;;;;;;;;;;;5.67;90.46;100945.84;5047090;28;19913;-82
2023/02/12 07:51:38;;;;;;;;;;;;;;;5.62;91.30;100945.50;5049758;28;19916;-81
2023/02/12 07:54:04;;;;;;;;;;;;;;;5.66;92.42;100946.00;5050150;28;20416;-81
2023/02/12 07:56:31;;;;;;;;;;;;;;;5.80;91.47;100953.28;5051606;28;19923;-81
2023/02/12 07:58:57;;;;;;;;;;;;;;;5.75;90.21;100951.13;5052088;28;19974;-81
2023/02/12 08:01:25;;;;;;;;;;;;;;;5.75;91.58;100948.50;5054483;28;19927;-80
2023/02/12 08:03:51;;;;;;;;;;;;;;;5.72;91.58;100940.06;5055202;28;19916;-80
2023/02/12 08:06:21;;;;;;;;;;;;;;;5.74;91.37;100948.66;5060034;28;19927;-80
2023/02/12 08:08:47;;;;;;;;;;;;;;;5.68;92.48;100939.53;5056343;28;19966;-80
2023/02/12 08:11:13;;;;;;;;;;;;;;;5.81;90.60;100941.72;5059081;28;19916;-81
2023/02/12 08:13:39;;;;;;;;;;;;;;;5.72;91.46;100945.34;5051195;28;20292;-81
2023/02/12 08:16:12;;;;;;;;;;;;;;;5.72;91.02;100950.66;5050463;28;19913;-81
2023/02/12 08:18:38;;;;;;;;;;;;;;;5.91;90.16;100942.38;5059313;28;19917;-81
2023/02/12 08:21:04;;;;;;;;;;;;;;;5.85;92.53;100951.00;5057018;28;19924;-79
2023/02/12 08:24:41;;;;;;;;;;;;;;;6.19;92.21;100942.84;5095865;27;19917;-75
2023/02/12 08:27:06;;;;;;;;;;;;;;;6.38;91.00;100947.75;5083053;28;19921;-75
2023/02/12 08:29:32;;;;;;;;;;;;;;;6.37;91.34;100946.13;5081473;28;20429;-76
2023/02/12 08:31:58;;;;;;;;;;;;;;;6.16;91.49;100948.50;5080249;28;19924;-74
2023/02/12 08:34:24;;;;;;;;;;;;;;;6.14;92.67;100953.16;5084508;28;20393;-74
2023/02/12 08:36:52;;;;;;;;;;;;;;;6.14;93.94;100953.16;5085566;28;19927;-73
2023/02/12 08:39:18;;;;;;;;;;;;;;;6.00;92.50;100960.78;5085225;28;19922;-75
2023/02/12 08:41:43;;;;;;;;;;;;;;;6.10;93.70;100959.75;5084937;28;20007;-75
2023/02/12 08:44:09;;;;;;;;;;;;;;;6.01;94.32;100962.41;5086154;28;19928;-77
2023/02/12 08:46:35;;;;;;;;;;;;;;;6.03;94.49;100960.44;5082191;28;19924;-76
2023/02/12 08:49:02;;;;;;;;;;;;;;;6.03;94.37;100965.72;5080287;28;19916;-77
2023/02/12 08:51:32;;;;;;;;;;;;;;;6.09;93.25;100958.94;5083599;28;19993;-75
2023/02/12 08:53:59;;;;;;;;;;;;;;;6.11;93.83;100964.06;5088081;28;20363;-75
2023/02/12 08:56:25;;;;;;;;;;;;;;;6.12;92.98;100971.84;5085832;28;20439;-76
2023/02/12 08:58:50;;;;;;;;;;;;;;;6.12;94.13;100965.72;5086583;28;19975;-75
2023/02/12 09:01:17;;;;;;;;;;;;;;;6.11;93.61;100969.38;5081611;28;19968;-75
2023/02/12 09:03:42;;;;;;;;;;;;;;;6.14;93.69;100966.41;5086407;28;19929;-76
2023/02/12 09:06:08;;;;;;;;;;;;;;;6.16;94.23;100972.34;5085320;28;19942;-76
2023/02/12 09:08:33;;;;;;;;;;;;;;;6.10;94.51;100981.78;5084184;28;19920;-75
2023/02/12 09:10:59;;;;;;;;;;;;;;;6.14;93.42;100987.59;5080555;28;20377;-75
2023/02/12 09:13:24;;;;;;;;;;;;;;;6.15;94.61;100984.78;5085707;28;19920;-75
2023/02/12 09:15:50;;;;;;;;;;;;;;;6.13;94.06;100985.94;5087558;28;20380;-75
2023/02/12 09:18:15;;;;;;;;;;;;;;;6.16;93.88;100980.31;5086948;28;19916;-73
2023/02/12 09:20:41;;;;;;;;;;;;;;;6.15;93.91;100978.66;5084845;28;19923;-73
2023/02/12 09:23:08;;;;;;;;;;;;;;;6.16;94.28;100985.63;5077938;28;19929;-74
2023/02/12 09:25:33;;;;;;;;;;;;;;;6.03;96.87;100994.06;5084361;28;19999;-74
2023/02/12 09:27:59;;;;;;;;;;;;;;;6.18;94.48;100991.56;5084296;28;20011;-73
2023/02/12 09:30:24;;;;;;;;;;;;;;;6.23;94.16;100992.72;5088835;28;20003;-74
2023/02/12 09:32:49;;;;;;;;;;;;;;;6.31;93.58;100995.34;5085560;28;20642;-74
2023/02/12 09:35:14;;;;;;;;;;;;;;;6.38;93.09;100995.50;5075652;28;19935;-74
2023/02/12 09:37:40;;;;;;;;;;;;;;;6.34;93.19;101004.78;5062304;28;19928;-75
2023/02/12 09:40:06;;;;;;;;;;;;;;;6.28;93.46;101003.66;5065657;28;19928;-75
2023/02/12 09:42:43;;;;;;;;;;;;;;;6.37;93.32;101009.78;5067616;28;19920;-74
2023/02/12 09:45:18;;;;;;;;;;;;;;;6.37;92.97;101002.66;5070928;28;19923;-74
2023/02/12 09:47:53;;;;;;;;;;;;;;;6.36;93.00;101008.09;5072397;28;19920;-75
2023/02/12 09:50:36;;;;;;;;;;;;;;;6.44;92.50;101008.09;5064984;28;20419;-73
2023/02/12 09:53:03;;;;;;;;;;;;;;;6.45;92.81;101009.75;5071516;28;19921;-73
2023/02/12 09:55:30;;;;;;;;;;;;;;;6.28;94.26;101010.78;5068447;28;20010;-74
2023/02/12 09:57:56;;;;;;;;;;;;;;;6.36;93.34;101005.44;5071090;28;19994;-74
2023/02/12 10:00:30;;;;;;;;;;;;;;;6.42;93.03;101015.41;5070907;28;20035;-74
2023/02/12 10:02:56;;;;;;;;;;;;;;;6.29;93.99;101012.44;5070915;28;19967;-73
2023/02/12 10:05:24;;;;;;;;;;;;;;;6.28;93.24;101008.97;5077397;28;20349;-73
2023/02/12 10:07:50;;;;;;;;;;;;;;;6.30;92.98;101011.44;5073109;28;20295;-75
2023/02/12 10:10:24;;;;;;;;;;;;;;;6.27;93.48;101017.09;5068301;28;19999;-73
2023/02/12 10:12:53;;;;;;;;;;;;;;;6.36;93.92;101018.72;5065102;28;20415;-74
2023/02/12 10:15:27;;;;;;;;;;;;;;;6.34;92.33;101021.53;5067004;28;19920;-73
2023/02/12 10:17:52;;;;;;;;;;;;;;;6.45;92.87;101018.53;5068836;28;19916;-78
2023/02/12 10:20:30;;;;;;;;;;;;;;;6.54;92.82;101024.66;5064148;28;19917;-72
2023/02/12 10:22:55;;;;;;;;;;;;;;;6.53;92.79;101013.22;5069430;28;19924;-75
2023/02/12 10:25:20;;;;;;;;;;;;;;;6.73;92.04;101013.66;5068097;28;19970;-75
2023/02/12 10:27:48;;;;;;;;;;;;;;;6.62;92.49;101016.66;5069233;28;19916;-77
2023/02/12 10:30:23;;;;;;;;;;;;;;;6.61;92.75;101013.22;5068186;28;19944;-76
2023/02/12 10:32:50;;;;;;;;;;;;;;;6.56;92.89;101015.53;5069127;28;19963;-75
2023/02/12 10:35:17;;;;;;;;;;;;;;;6.70;92.40;101008.72;5070069;28;19917;-75
2023/02/12 10:37:54;;;;;;;;;;;;;;;6.61;92.74;101015.03;5065606;28;19956;-74
2023/02/12 10:40:23;;;;;;;;;;;;;;;6.79;92.81;101013.00;5069428;28;19999;-74
2023/02/12 10:42:50;;;;;;;;;;;;;;;6.57;92.46;101014.56;5071005;28;19946;-75
2023/02/12 10:45:17;;;;;;;;;;;;;;;6.70;92.84;101014.00;5069229;28;19920;-74
2023/02/12 10:47:43;;;;;;;;;;;;;;;6.70;93.14;101012.19;5065706;28;19935;-74
2023/02/12 10:50:16;;;;;;;;;;;;;;;6.59;93.20;101014.38;5068036;28;19928;-75
2023/02/12 10:52:47;;;;;;;;;;;;;;;6.65;92.70;101014.53;5071543;28;19923;-77
2023/02/12 10:55:38;;;;;;;;;;;;;;;6.72;92.60;101020.81;5067497;28;19920;-75
2023/02/12 10:58:15;;;;;;;;;;;;;;;6.76;92.75;101010.66;5070536;28;19916;-77
2023/02/12 11:00:41;;;;;;;;;;;;;;;6.79;92.72;101018.31;5072329;28;19970;-76
2023/02/12 11:03:09;;;;;;;;;;;;;;;7.27;91.84;101020.72;5070567;28;20015;-76
2023/02/12 11:05:36;;;;;;;;;;;;;;;7.61;90.81;101011.56;5067798;28;19959;-76
2023/02/12 11:08:02;;;;;;;;;;;;;;;8.37;87.83;101014.97;5067379;28;19956;-73
2023/02/12 11:10:32;;;;;;;;;;;;;;;8.26;87.03;101007.44;5068943;28;20010;-74
2023/02/12 11:12:58;;;;;;;;;;;;;;;8.59;87.64;101008.75;5069975;28;20458;-73
2023/02/12 11:15:25;;;;;;;;;;;;;;;8.25;87.29;101013.75;5068723;28;19924;-74
2023/02/12 11:17:55;;;;;;;;;;;;;;;9.15;85.26;101009.94;5067850;28;19921;-75
2023/02/12 11:20:25;;;;;;;;;;;;;;;9.19;84.17;101011.22;5065400;28;19955;-75
2023/02/12 11:22:55;;;;;;;;;;;;;;;9.10;84.78;101008.84;5069944;28;20274;-73
2023/02/12 11:25:21;;;;;;;;;;;;;;;9.06;84.35;101008.41;5070534;28;19923;-73
2023/02/12 11:28:07;;;;;;;;;;;;;;;9.41;83.29;101002.28;5065442;28;19951;-73
2023/02/12 11:30:32;;;;;;;;;;;;;;;9.04;84.21;101003.22;5063315;28;19930;-73
2023/02/12 11:33:17;;;;;;;;;;;;;;;9.40;82.06;101005.94;5065334;28;19928;-75
2023/02/12 11:36:01;;;;;;;;;;;;;;;9.90;82.50;101005.00;5060448;28;19920;-73
2023/02/12 11:38:28;;;;;;;;;;;;;;;10.30;79.91;101003.53;5061794;28;19923;-74
2023/02/12 11:40:56;;;;;;;;;;;;;;;10.41;79.06;100997.66;5059634;28;20442;-73
2023/02/12 11:43:23;;;;;;;;;;;;;;;10.41;79.11;100989.66;5065704;28;19924;-74
2023/02/12 11:45:51;;;;;;;;;;;;;;;10.25;79.46;100996.13;5069124;28;19925;-74
2023/02/12 11:48:21;;;;;;;;;;;;;;;10.24;80.26;100990.97;5063715;28;20393;-76
2023/02/12 11:50:48;;;;;;;;;;;;;;;9.97;80.74;100995.22;5064603;28;19959;-76
2023/02/12 11:53:20;;;;;;;;;;;;;;;9.46;81.15;101001.69;5068409;28;20007;-75
2023/02/12 11:55:53;;;;;;;;;;;;;;;9.81;82.32;100995.47;5068451;28;19920;-76
2023/02/12 11:58:22;;;;;;;;;;;;;;;9.64;83.54;101005.59;5064652;28;19975;-75
2023/02/12 12:00:57;;;;;;;;;;;;;;;10.51;80.61;100998.13;5069355;28;19916;-74
2023/02/12 12:03:43;;;;;;;;;;;;;;;10.64;79.20;100998.22;5065244;28;19936;-74
2023/02/12 12:06:15;;;;;;;;;;;;;;;10.74;78.47;101001.38;5068110;28;19931;-72
2023/02/12 12:08:44;;;;;;;;;;;;;;;10.70;78.23;100997.47;5067797;28;20005;-72
2023/02/12 12:11:24;;;;;;;;;;;;;;;10.27;79.66;100980.72;5064307;28;20373;-72
2023/02/12 12:14:02;;;;;;;;;;;;;;;9.47;80.14;100990.00;5064293;28;20569;-72
2023/02/12 12:22:33;;;;;;;;;;;;;;;8.86;83.86;100986.84;5067161;28;19924;-73
2023/02/12 12:25:09;;;;;;;;;;;;;;;8.70;84.47;100984.34;5067181;28;20351;-73
2023/02/12 12:30:36;;;;;;;;;;;;;;;8.54;84.89;100986.38;5062402;28;19923;-76
2023/02/12 12:33:03;;;;;;;;;;;;;;;8.49;84.58;100986.09;5070177;28;19970;-76
2023/02/12 12:35:45;;;;;;;;;;;;;;;8.40;84.45;100982.69;5071403;28;19916;-77
2023/02/12 12:38:38;;;;;;;;;;;;;;;8.23;85.37;100978.50;5065155;28;20003;-75
2023/02/12 12:41:12;;;;;;;;;;;;;;;8.24;84.89;100969.50;5061254;28;19925;-76
2023/02/12 12:43:40;;;;;;;;;;;;;;;8.22;84.74;100974.19;5057120;28;20377;-75
2023/02/12 12:46:23;;;;;;;;;;;;;;;8.01;85.15;100974.06;5065287;28;20033;-76
2023/02/12 12:48:58;;;;;;;;;;;;;;;8.04;86.22;100971.84;5069211;28;19916;-77
2023/02/12 12:51:23;;;;;;;;;;;;;;;7.87;86.73;100978.31;5067485;28;19920;-74
2023/02/12 12:53:48;;;;;;;;;;;;;;;7.99;85.90;100971.59;5068168;28;19950;-75
2023/02/12 12:56:21;;;;;;;;;;;;;;;7.91;86.11;100973.47;5067331;28;19916;-76
2023/02/12 12:58:50;;;;;;;;;;;;;;;8.00;85.57;100970.56;5065314;28;20381;-74
2023/02/12 13:01:21;;;;;;;;;;;;;;;7.81;86.22;100965.75;5067941;28;19920;-72
2023/02/12 13:04:01;;;;;;;;;;;;;;;7.92;86.56;100961.84;5066562;28;19924;-74
2023/02/12 13:06:45;;;;;;;;;;;;;;;7.80;86.58;100969.41;5067021;28;19920;-74
2023/02/12 13:09:27;;;;;;;;;;;;;;;7.75;87.02;100963.81;5065227;28;19924;-74